sensor_id;sensor_type;location;lat;lon;timestamp;pressure;altitude;pressure_sealevel;temperature;humidity
76973;BME280;65907;53.640;10.050;2023-03-01T00:01:49;102464.84;;;22.85;28.40
76973;BME280;65907;53.640;10.050;2023-03-01T00:04:14;102462.22;;;22.85;28.27
76973;BME280;65907;53.640;10.050;2023-03-01T00:06:39;102457.91;;;22.84;28.11
76973;BME280;65907;53.640;10.050;2023-03-01T00:09:05;102462.66;;;22.92;28.09
76973;BME280;65907;53.640;10.050;2023-03-01T00:11:31;102467.50;;;22.98;27.92
76973;BME280;65907;53.640;10.050;2023-03-01T00:13:57;102470.25;;;22.97;27.83
76973;BME280;65907;53.640;10.050;2023-03-01T00:16:27;102465.19;;;22.94;27.76
76973;BME280;65907;53.640;10.050;2023-03-01T00:18:53;102470.19;;;22.84;27.77
76973;BME280;65907;53.640;10.050;2023-03-01T00:21:19;102474.50;;;22.85;27.73
76973;BME280;65907;53.640;10.050;2023-03-01T00:23:47;102467.47;;;22.85;27.94
76973;BME280;65907;53.640;10.050;2023-03-01T00:26:13;102475.50;;;22.97;27.69
76973;BME280;65907;53.640;10.050;2023-03-01T00:28:39;102479.88;;;22.96;27.63
76973;BME280;65907;53.640;10.050;2023-03-01T00:31:05;102475.78;;;22.92;27.68
76973;BME280;65907;53.640;10.050;2023-03-01T00:33:31;102462.97;;;22.87;27.56
76973;BME280;65907;53.640;10.050;2023-03-01T00:35:57;102467.38;;;22.87;27.45
76973;BME280;65907;53.640;10.050;2023-03-01T00:38:23;102460.53;;;22.84;27.63
76973;BME280;65907;53.640;10.050;2023-03-01T00:40:50;102459.13;;;22.78;27.59
76973;BME280;65907;53.640;10.050;2023-03-01T00:43:15;102458.50;;;22.75;27.71
76973;BME280;65907;53.640;10.050;2023-03-01T00:45:43;102465.81;;;22.70;27.80
76973;BME280;65907;53.640;10.050;2023-03-01T00:48:08;102461.41;;;22.70;27.72
76973;BME280;65907;53.640;10.050;2023-03-01T00:50:33;102455.53;;;22.67;27.76
76973;BME280;65907;53.640;10.050;2023-03-01T00:52:59;102449.03;;;22.72;27.56
76973;BME280;65907;53.640;10.050;2023-03-01T00:55:24;102451.75;;;22.71;27.48
76973;BME280;65907;53.640;10.050;2023-03-01T00:57:49;102448.09;;;22.73;27.30
76973;BME280;65907;53.640;10.050;2023-03-01T01:00:15;102449.44;;;22.66;27.51
76973;BME280;65907;53.640;10.050;2023-03-01T01:02:40;102454.38;;;22.71;27.09
76973;BME280;65907;53.640;10.050;2023-03-01T01:05:08;102454.28;;;22.72;27.38
76973;BME280;65907;53.640;10.050;2023-03-01T01:07:33;102445.78;;;22.69;27.63
76973;BME280;65907;53.640;10.050;2023-03-01T01:09:58;102454.94;;;22.76;27.08
76973;BME280;65907;53.640;10.050;2023-03-01T01:12:24;102452.59;;;22.71;27.26
76973;BME280;65907;53.640;10.050;2023-03-01T01:14:49;102454.38;;;22.71;27.09
76973;BME280;65907;53.640;10.050;2023-03-01T01:17:14;102449.34;;;22.68;27.23
76973;BME280;65907;53.640;10.050;2023-03-01T01:19:39;102448.72;;;22.64;27.50
76973;BME280;65907;53.640;10.050;2023-03-01T01:22:04;102449.53;;;22.65;27.17
76973;BME280;65907;53.640;10.050;2023-03-01T01:24:30;102450.94;;;22.70;27.26
76973;BME280;65907;53.640;10.050;2023-03-01T01:26:55;102448.50;;;22.67;27.40
76973;BME280;65907;53.640;10.050;2023-03-01T01:29:20;102440.09;;;22.62;27.22
76973;BME280;65907;53.640;10.050;2023-03-01T01:31:46;102445.16;;;22.65;27.06
76973;BME280;65907;53.640;10.050;2023-03-01T01:34:15;102442.72;;;22.62;27.48
76973;BME280;65907;53.640;10.050;2023-03-01T01:36:41;102434.47;;;22.54;27.18
76973;BME280;65907;53.640;10.050;2023-03-01T01:39:06;102434.00;;;22.61;27.45
76973;BME280;65907;53.640;10.050;2023-03-01T01:41:32;102435.03;;;22.59;27.17
76973;BME280;65907;53.640;10.050;2023-03-01T01:49:36;102426.06;;;22.48;27.63
76973;BME280;65907;53.640;10.050;2023-03-01T01:52:13;102422.50;;;22.49;27.37
76973;BME280;65907;53.640;10.050;2023-03-01T01:54:45;102424.00;;;22.54;27.07
76973;BME280;65907;53.640;10.050;2023-03-01T01:57:21;102419.16;;;22.47;27.23
76973;BME280;65907;53.640;10.050;2023-03-01T01:59:50;102420.81;;;22.48;27.41
76973;BME280;65907;53.640;10.050;2023-03-01T02:02:15;102421.28;;;22.41;27.37
76973;BME280;65907;53.640;10.050;2023-03-01T02:04:41;102414.06;;;22.44;27.44
76973;BME280;65907;53.640;10.050;2023-03-01T02:09:35;102423.16;;;22.39;27.37
76973;BME280;65907;53.640;10.050;2023-03-01T02:12:01;102421.00;;;22.45;27.03
76973;BME280;65907;53.640;10.050;2023-03-01T02:14:26;102418.94;;;22.51;27.14
76973;BME280;65907;53.640;10.050;2023-03-01T02:16:54;102410.78;;;22.41;27.25
76973;BME280;65907;53.640;10.050;2023-03-01T02:22:09;102406.41;;;22.41;27.31
76973;BME280;65907;53.640;10.050;2023-03-01T02:27:26;102406.41;;;22.41;27.35
76973;BME280;65907;53.640;10.050;2023-03-01T02:29:54;102406.28;;;22.43;27.15
76973;BME280;65907;53.640;10.050;2023-03-01T02:32:19;102402.66;;;22.45;27.16
76973;BME280;65907;53.640;10.050;2023-03-01T02:34:50;102407.88;;;22.45;27.24
76973;BME280;65907;53.640;10.050;2023-03-01T02:37:18;102410.13;;;22.37;27.26
76973;BME280;65907;53.640;10.050;2023-03-01T02:39:51;102405.66;;;22.39;27.32
76973;BME280;65907;53.640;10.050;2023-03-01T02:42:20;102405.28;;;22.31;27.37
76973;BME280;65907;53.640;10.050;2023-03-01T02:44:46;102398.75;;;22.24;27.24
76973;BME280;65907;53.640;10.050;2023-03-01T02:47:13;102392.22;;;22.16;27.64
76973;BME280;65907;53.640;10.050;2023-03-01T02:49:38;102390.34;;;22.18;27.42
76973;BME280;65907;53.640;10.050;2023-03-01T02:52:23;102387.81;;;22.17;27.60
76973;BME280;65907;53.640;10.050;2023-03-01T02:54:57;102383.91;;;22.10;27.60
76973;BME280;65907;53.640;10.050;2023-03-01T02:57:23;102377.59;;;22.12;27.32
76973;BME280;65907;53.640;10.050;2023-03-01T02:59:49;102374.34;;;22.09;27.46
76973;BME280;65907;53.640;10.050;2023-03-01T03:02:19;102373.31;;;22.11;27.43
76973;BME280;65907;53.640;10.050;2023-03-01T03:04:46;102372.38;;;22.12;27.34
76973;BME280;65907;53.640;10.050;2023-03-01T03:07:11;102365.38;;;22.13;27.32
76973;BME280;65907;53.640;10.050;2023-03-01T03:09:36;102360.59;;;22.05;27.64
76973;BME280;65907;53.640;10.050;2023-03-01T03:12:01;102355.91;;;22.10;27.40
76973;BME280;65907;53.640;10.050;2023-03-01T03:14:26;102356.97;;;22.08;27.23
76973;BME280;65907;53.640;10.050;2023-03-01T03:16:52;102348.09;;;21.96;27.54
76973;BME280;65907;53.640;10.050;2023-03-01T03:19:17;102344.06;;;22.04;27.50
76973;BME280;65907;53.640;10.050;2023-03-01T03:21:43;102351.44;;;21.98;27.13
76973;BME280;65907;53.640;10.050;2023-03-01T03:24:08;102347.97;;;21.97;27.23
76973;BME280;65907;53.640;10.050;2023-03-01T03:26:34;102355.00;;;21.97;27.47
76973;BME280;65907;53.640;10.050;2023-03-01T03:28:59;102354.63;;;22.03;27.48
76973;BME280;65907;53.640;10.050;2023-03-01T03:31:24;102352.28;;;21.98;27.05
76973;BME280;65907;53.640;10.050;2023-03-01T03:33:49;102348.53;;;22.02;27.00
76973;BME280;65907;53.640;10.050;2023-03-01T03:36:19;102342.66;;;21.99;27.40
76973;BME280;65907;53.640;10.050;2023-03-01T03:38:45;102342.94;;;21.94;27.62
76973;BME280;65907;53.640;10.050;2023-03-01T03:41:11;102341.16;;;21.95;27.26
76973;BME280;65907;53.640;10.050;2023-03-01T03:43:37;102341.25;;;21.93;27.37
76973;BME280;65907;53.640;10.050;2023-03-01T03:46:03;102340.41;;;21.92;27.26
76973;BME280;65907;53.640;10.050;2023-03-01T03:48:35;102334.59;;;21.87;27.30
76973;BME280;65907;53.640;10.050;2023-03-01T03:51:03;102344.34;;;22.00;27.08
76973;BME280;65907;53.640;10.050;2023-03-01T03:53:31;102336.75;;;21.95;27.19
76973;BME280;65907;53.640;10.050;2023-03-01T03:55:57;102340.97;;;21.98;26.89
76973;BME280;65907;53.640;10.050;2023-03-01T03:58:23;102341.44;;;21.90;27.03
76973;BME280;65907;53.640;10.050;2023-03-01T04:00:50;102348.81;;;21.83;27.24
76973;BME280;65907;53.640;10.050;2023-03-01T04:03:16;102340.78;;;21.86;26.88
76973;BME280;65907;53.640;10.050;2023-03-01T04:05:44;102348.63;;;21.86;27.27
76973;BME280;65907;53.640;10.050;2023-03-01T04:08:09;102358.16;;;21.87;27.08
76973;BME280;65907;53.640;10.050;2023-03-01T04:10:35;102353.59;;;21.91;27.22
76973;BME280;65907;53.640;10.050;2023-03-01T04:13:03;102348.44;;;21.89;26.86
76973;BME280;65907;53.640;10.050;2023-03-01T04:15:28;102351.84;;;21.91;27.05
76973;BME280;65907;53.640;10.050;2023-03-01T04:17:54;102361.66;;;21.88;27.11
76973;BME280;65907;53.640;10.050;2023-03-01T04:20:24;102360.16;;;21.84;27.28
76973;BME280;65907;53.640;10.050;2023-03-01T04:22:51;102357.44;;;21.85;26.97
76973;BME280;65907;53.640;10.050;2023-03-01T04:25:18;102364.66;;;21.82;27.12
76973;BME280;65907;53.640;10.050;2023-03-01T04:27:44;102362.38;;;21.75;26.96
76973;BME280;65907;53.640;10.050;2023-03-01T04:30:11;102359.56;;;21.78;26.80
76973;BME280;65907;53.640;10.050;2023-03-01T04:32:36;102369.31;;;21.91;26.74
76973;BME280;65907;53.640;10.050;2023-03-01T04:35:04;102368.38;;;21.77;27.19
76973;BME280;65907;53.640;10.050;2023-03-01T04:37:30;102367.34;;;21.80;27.07
76973;BME280;65907;53.640;10.050;2023-03-01T04:39:55;102369.13;;;21.80;27.16
76973;BME280;65907;53.640;10.050;2023-03-01T04:42:20;102373.59;;;21.77;27.14
76973;BME280;65907;53.640;10.050;2023-03-01T04:44:45;102357.72;;;21.81;26.90
76973;BME280;65907;53.640;10.050;2023-03-01T04:47:11;102361.38;;;21.78;27.08
76973;BME280;65907;53.640;10.050;2023-03-01T04:49:38;102363.44;;;21.73;27.03
76973;BME280;65907;53.640;10.050;2023-03-01T04:52:05;102355.84;;;21.68;27.25
76973;BME280;65907;53.640;10.050;2023-03-01T04:54:31;102353.59;;;21.76;26.98
76973;BME280;65907;53.640;10.050;2023-03-01T04:56:56;102356.13;;;21.78;26.84
76973;BME280;65907;53.640;10.050;2023-03-01T04:59:22;102361.16;;;21.81;27.01
76973;BME280;65907;53.640;10.050;2023-03-01T05:01:50;102358.38;;;21.84;26.74
76973;BME280;65907;53.640;10.050;2023-03-01T05:04:16;102358.47;;;21.83;26.35
76973;BME280;65907;53.640;10.050;2023-03-01T05:06:41;102355.84;;;21.83;26.70
76973;BME280;65907;53.640;10.050;2023-03-01T05:09:09;102356.22;;;21.76;26.77
76973;BME280;65907;53.640;10.050;2023-03-01T05:11:38;102351.28;;;21.72;26.78
76973;BME280;65907;53.640;10.050;2023-03-01T05:14:04;102353.03;;;21.71;27.16
76973;BME280;65907;53.640;10.050;2023-03-01T05:16:30;102348.19;;;21.65;26.72
76973;BME280;65907;53.640;10.050;2023-03-01T05:18:59;102344.63;;;21.66;26.57
76973;BME280;65907;53.640;10.050;2023-03-01T05:21:24;102343.09;;;21.62;26.81
76973;BME280;65907;53.640;10.050;2023-03-01T05:23:54;102338.81;;;21.75;26.71
76973;BME280;65907;53.640;10.050;2023-03-01T05:26:21;102337.88;;;21.76;26.84
76973;BME280;65907;53.640;10.050;2023-03-01T05:28:47;102335.00;;;21.81;26.75
76973;BME280;65907;53.640;10.050;2023-03-01T05:31:15;102340.63;;;21.75;26.51
76973;BME280;65907;53.640;10.050;2023-03-01T05:33:40;102336.19;;;21.75;26.63
76973;BME280;65907;53.640;10.050;2023-03-01T05:36:08;102324.91;;;21.75;26.92
76973;BME280;65907;53.640;10.050;2023-03-01T05:38:34;102334.50;;;21.74;26.57
76973;BME280;65907;53.640;10.050;2023-03-01T05:41:00;102324.50;;;21.81;26.67
76973;BME280;65907;53.640;10.050;2023-03-01T05:43:25;102336.84;;;21.65;26.98
76973;BME280;65907;53.640;10.050;2023-03-01T05:45:54;102329.75;;;21.67;26.42
76973;BME280;65907;53.640;10.050;2023-03-01T05:48:22;102330.09;;;21.60;26.72
76973;BME280;65907;53.640;10.050;2023-03-01T05:50:47;102327.28;;;21.63;26.94
76973;BME280;65907;53.640;10.050;2023-03-01T05:53:14;102331.63;;;21.65;26.80
76973;BME280;65907;53.640;10.050;2023-03-01T05:55:40;102332.78;;;21.30;27.50
76973;BME280;65907;53.640;10.050;2023-03-01T05:58:06;102333.06;;;21.25;27.28
76973;BME280;65907;53.640;10.050;2023-03-01T06:00:34;102340.72;;;21.43;27.43
76973;BME280;65907;53.640;10.050;2023-03-01T06:03:00;102337.19;;;21.44;27.01
76973;BME280;65907;53.640;10.050;2023-03-01T06:05:25;102342.06;;;21.50;27.39
76973;BME280;65907;53.640;10.050;2023-03-01T06:07:53;102344.22;;;21.43;27.36
76973;BME280;65907;53.640;10.050;2023-03-01T06:10:18;102346.66;;;21.16;27.91
76973;BME280;65907;53.640;10.050;2023-03-01T06:12:44;102347.28;;;21.35;28.24
76973;BME280;65907;53.640;10.050;2023-03-01T06:15:13;102339.34;;;21.37;28.35
76973;BME280;65907;53.640;10.050;2023-03-01T06:17:39;102341.06;;;21.67;27.71
76973;BME280;65907;53.640;10.050;2023-03-01T06:20:06;102344.88;;;21.61;27.08
76973;BME280;65907;53.640;10.050;2023-03-01T06:22:32;102346.66;;;21.61;27.73
76973;BME280;65907;53.640;10.050;2023-03-01T06:24:57;102339.47;;;21.65;27.62
76973;BME280;65907;53.640;10.050;2023-03-01T06:27:22;102343.19;;;21.60;27.84
76973;BME280;65907;53.640;10.050;2023-03-01T06:29:48;102340.56;;;21.60;27.79
76973;BME280;65907;53.640;10.050;2023-03-01T06:32:13;102350.84;;;21.63;27.57
76973;BME280;65907;53.640;10.050;2023-03-01T06:34:39;102346.47;;;21.64;27.86
76973;BME280;65907;53.640;10.050;2023-03-01T06:37:04;102355.34;;;21.61;27.78
76973;BME280;65907;53.640;10.050;2023-03-01T06:39:30;102349.34;;;21.45;28.10
76973;BME280;65907;53.640;10.050;2023-03-01T06:41:55;102352.13;;;21.27;27.63
76973;BME280;65907;53.640;10.050;2023-03-01T06:44:21;102351.41;;;21.09;27.11
76973;BME280;65907;53.640;10.050;2023-03-01T06:46:46;102345.81;;;21.46;26.27
76973;BME280;65907;53.640;10.050;2023-03-01T06:49:11;102341.06;;;21.67;27.42
76973;BME280;65907;53.640;10.050;2023-03-01T06:51:37;102345.34;;;20.62;29.28
76973;BME280;65907;53.640;10.050;2023-03-01T06:54:04;102349.03;;;20.90;29.37
76973;BME280;65907;53.640;10.050;2023-03-01T06:56:32;102339.13;;;21.26;28.12
76973;BME280;65907;53.640;10.050;2023-03-01T06:58:57;102343.09;;;21.62;27.39
76973;BME280;65907;53.640;10.050;2023-03-01T07:01:22;102348.34;;;21.17;26.97
76973;BME280;65907;53.640;10.050;2023-03-01T07:03:50;102339.06;;;21.56;27.70
76973;BME280;65907;53.640;10.050;2023-03-01T07:06:15;102345.03;;;21.44;27.93
76973;BME280;65907;53.640;10.050;2023-03-01T07:08:40;102344.25;;;21.72;27.98
76973;BME280;65907;53.640;10.050;2023-03-01T07:11:06;102347.94;;;21.39;26.46
76973;BME280;65907;53.640;10.050;2023-03-01T07:13:35;102340.50;;;21.62;27.16
76973;BME280;65907;53.640;10.050;2023-03-01T07:16:03;102335.72;;;21.83;26.90
76973;BME280;65907;53.640;10.050;2023-03-01T07:18:29;102334.72;;;21.86;27.15
76973;BME280;65907;53.640;10.050;2023-03-01T07:20:54;102342.09;;;21.65;27.47
76973;BME280;65907;53.640;10.050;2023-03-01T07:23:19;102347.03;;;21.10;22.46
76973;BME280;65907;53.640;10.050;2023-03-01T07:25:47;102355.97;;;14.31;24.05
76973;BME280;65907;53.640;10.050;2023-03-01T07:28:15;102353.97;;;11.24;28.55
76973;BME280;65907;53.640;10.050;2023-03-01T07:30:41;102343.22;;;13.58;28.85
76973;BME280;65907;53.640;10.050;2023-03-01T07:33:06;102343.88;;;15.95;26.57
76973;BME280;65907;53.640;10.050;2023-03-01T07:35:32;102339.69;;;14.86;24.76
76973;BME280;65907;53.640;10.050;2023-03-01T07:37:58;102334.22;;;17.13;24.58
76973;BME280;65907;53.640;10.050;2023-03-01T07:40:26;102325.97;;;18.24;24.24
76973;BME280;65907;53.640;10.050;2023-03-01T07:42:58;102322.38;;;19.35;23.65
76973;BME280;65907;53.640;10.050;2023-03-01T07:45:27;102323.34;;;20.18;23.54
76973;BME280;65907;53.640;10.050;2023-03-01T07:47:55;102311.75;;;20.70;23.56
76973;BME280;65907;53.640;10.050;2023-03-01T07:50:20;102301.41;;;21.59;23.13
76973;BME280;65907;53.640;10.050;2023-03-01T07:52:49;102309.94;;;21.91;22.84
76973;BME280;65907;53.640;10.050;2023-03-01T07:55:14;102311.00;;;22.16;23.25
76973;BME280;65907;53.640;10.050;2023-03-01T07:57:40;102307.78;;;22.81;22.63
76973;BME280;65907;53.640;10.050;2023-03-01T08:00:05;102308.72;;;22.80;22.89
76973;BME280;65907;53.640;10.050;2023-03-01T08:02:31;102307.41;;;23.13;22.51
76973;BME280;65907;53.640;10.050;2023-03-01T08:04:56;102312.56;;;23.40;22.36
76973;BME280;65907;53.640;10.050;2023-03-01T08:07:21;102312.25;;;23.58;22.18
76973;BME280;65907;53.640;10.050;2023-03-01T08:09:46;102311.16;;;23.86;22.12
76973;BME280;65907;53.640;10.050;2023-03-01T08:12:12;102305.66;;;24.02;22.59
76973;BME280;65907;53.640;10.050;2023-03-01T08:14:39;102305.63;;;24.15;22.63
76973;BME280;65907;53.640;10.050;2023-03-01T08:17:05;102309.59;;;24.21;22.45
76973;BME280;65907;53.640;10.050;2023-03-01T08:19:30;102303.09;;;24.62;22.42
76973;BME280;65907;53.640;10.050;2023-03-01T08:21:55;102304.19;;;24.71;22.43
76973;BME280;65907;53.640;10.050;2023-03-01T08:24:24;102313.59;;;24.87;22.58
76973;BME280;65907;53.640;10.050;2023-03-01T08:26:51;102303.47;;;25.05;22.45
76973;BME280;65907;53.640;10.050;2023-03-01T08:29:16;102294.94;;;24.90;22.75
76973;BME280;65907;53.640;10.050;2023-03-01T08:31:41;102305.50;;;25.13;22.52
76973;BME280;65907;53.640;10.050;2023-03-01T08:34:08;102298.22;;;25.16;22.67
76973;BME280;65907;53.640;10.050;2023-03-01T08:36:38;102300.50;;;25.32;22.84
76973;BME280;65907;53.640;10.050;2023-03-01T08:39:03;102297.88;;;25.44;22.59
76973;BME280;65907;53.640;10.050;2023-03-01T08:41:29;102298.94;;;25.41;22.57
76973;BME280;65907;53.640;10.050;2023-03-01T08:43:54;102294.63;;;25.40;22.83
76973;BME280;65907;53.640;10.050;2023-03-01T08:46:24;102292.13;;;25.27;23.21
76973;BME280;65907;53.640;10.050;2023-03-01T08:48:49;102294.88;;;25.48;22.98
76973;BME280;65907;53.640;10.050;2023-03-01T08:51:18;102299.81;;;25.53;22.86
76973;BME280;65907;53.640;10.050;2023-03-01T08:53:44;102301.94;;;25.59;22.75
76973;BME280;65907;53.640;10.050;2023-03-01T08:56:09;102297.66;;;25.70;22.57
76973;BME280;65907;53.640;10.050;2023-03-01T08:58:36;102306.88;;;24.83;22.82
76973;BME280;65907;53.640;10.050;2023-03-01T09:01:06;102288.16;;;25.44;23.02
76973;BME280;65907;53.640;10.050;2023-03-01T09:03:31;102292.97;;;25.73;23.08
76973;BME280;65907;53.640;10.050;2023-03-01T09:05:59;102301.41;;;26.11;22.79
76973;BME280;65907;53.640;10.050;2023-03-01T09:08:26;102295.88;;;26.14;22.61
76973;BME280;65907;53.640;10.050;2023-03-01T09:10:51;102291.97;;;26.41;22.26
76973;BME280;65907;53.640;10.050;2023-03-01T09:13:19;102291.00;;;26.42;22.45
76973;BME280;65907;53.640;10.050;2023-03-01T09:15:44;102297.63;;;26.37;22.54
76973;BME280;65907;53.640;10.050;2023-03-01T09:18:09;102290.66;;;26.36;22.77
76973;BME280;65907;53.640;10.050;2023-03-01T09:20:37;102292.25;;;26.27;22.82
76973;BME280;65907;53.640;10.050;2023-03-01T09:23:02;102289.31;;;26.41;22.70
76973;BME280;65907;53.640;10.050;2023-03-01T09:25:28;102287.41;;;26.43;22.60
76973;BME280;65907;53.640;10.050;2023-03-01T09:27:53;102281.16;;;26.44;22.75
76973;BME280;65907;53.640;10.050;2023-03-01T09:30:21;102275.38;;;26.51;22.77
76973;BME280;65907;53.640;10.050;2023-03-01T09:32:46;102275.44;;;26.39;22.76
76973;BME280;65907;53.640;10.050;2023-03-01T09:35:12;102274.09;;;26.45;23.02
76973;BME280;65907;53.640;10.050;2023-03-01T09:37:37;102272.28;;;26.45;23.00
76973;BME280;65907;53.640;10.050;2023-03-01T09:40:04;102270.94;;;26.30;23.29
76973;BME280;65907;53.640;10.050;2023-03-01T09:42:31;102274.78;;;25.36;24.09
76973;BME280;65907;53.640;10.050;2023-03-01T09:47:32;102276.94;;;23.62;25.44
76973;BME280;65907;53.640;10.050;2023-03-01T09:54:49;102267.88;;;23.79;25.57
76973;BME280;65907;53.640;10.050;2023-03-01T10:04:51;102264.13;;;24.68;24.82
76973;BME280;65907;53.640;10.050;2023-03-01T10:10:04;102270.94;;;25.17;24.41
76973;BME280;65907;53.640;10.050;2023-03-01T10:12:37;102273.44;;;25.30;23.76
76973;BME280;65907;53.640;10.050;2023-03-01T10:15:15;102262.94;;;25.42;23.97
76973;BME280;65907;53.640;10.050;2023-03-01T10:17:52;102267.72;;;25.48;23.98
76973;BME280;65907;53.640;10.050;2023-03-01T10:22:45;102267.97;;;25.56;23.82
76973;BME280;65907;53.640;10.050;2023-03-01T10:25:15;102262.34;;;25.61;23.70
76973;BME280;65907;53.640;10.050;2023-03-01T10:27:45;102267.59;;;25.15;23.29
76973;BME280;65907;53.640;10.050;2023-03-01T10:32:52;102260.88;;;25.11;24.20
76973;BME280;65907;53.640;10.050;2023-03-01T10:35:20;102265.03;;;24.91;24.35
76973;BME280;65907;53.640;10.050;2023-03-01T10:40:29;102265.88;;;24.20;25.80
76973;BME280;65907;53.640;10.050;2023-03-01T10:42:57;102266.94;;;23.80;26.56
76973;BME280;65907;53.640;10.050;2023-03-01T10:50:36;102254.75;;;24.52;25.93
76973;BME280;65907;53.640;10.050;2023-03-01T10:53:05;102260.47;;;24.82;25.51
76973;BME280;65907;53.640;10.050;2023-03-01T10:55:43;102250.94;;;24.92;25.35
76973;BME280;65907;53.640;10.050;2023-03-01T10:58:18;102259.19;;;24.99;25.27
76973;BME280;65907;53.640;10.050;2023-03-01T11:03:14;102247.84;;;25.10;25.17
76973;BME280;65907;53.640;10.050;2023-03-01T11:05:52;102251.44;;;25.20;25.25
76973;BME280;65907;53.640;10.050;2023-03-01T11:08:35;102251.19;;;25.34;25.18
76973;BME280;65907;53.640;10.050;2023-03-01T11:11:03;102236.25;;;25.35;25.11
76973;BME280;65907;53.640;10.050;2023-03-01T11:13:29;102246.28;;;25.41;25.02
76973;BME280;65907;53.640;10.050;2023-03-01T11:16:03;102238.38;;;25.41;24.94
76973;BME280;65907;53.640;10.050;2023-03-01T11:18:30;102244.03;;;25.25;25.17
76973;BME280;65907;53.640;10.050;2023-03-01T11:20:56;102239.56;;;24.80;24.69
76973;BME280;65907;53.640;10.050;2023-03-01T11:23:23;102247.38;;;25.27;24.49
76973;BME280;65907;53.640;10.050;2023-03-01T11:25:54;102242.00;;;25.29;25.07
76973;BME280;65907;53.640;10.050;2023-03-01T11:28:20;102238.72;;;25.37;24.84
76973;BME280;65907;53.640;10.050;2023-03-01T11:33:37;102238.50;;;25.40;24.99
76973;BME280;65907;53.640;10.050;2023-03-01T11:38:30;102233.94;;;24.49;26.31
76973;BME280;65907;53.640;10.050;2023-03-01T11:41:05;102232.03;;;24.87;26.01
76973;BME280;65907;53.640;10.050;2023-03-01T11:50:56;102218.28;;;25.17;25.55
76973;BME280;65907;53.640;10.050;2023-03-01T11:53:29;102213.38;;;25.13;25.57
76973;BME280;65907;53.640;10.050;2023-03-01T11:56:03;102204.88;;;25.20;25.38
76973;BME280;65907;53.640;10.050;2023-03-01T12:01:18;102204.28;;;25.05;25.42
76973;BME280;65907;53.640;10.050;2023-03-01T12:06:28;102200.22;;;24.90;25.67
76973;BME280;65907;53.640;10.050;2023-03-01T12:09:02;102201.66;;;24.94;25.62
76973;BME280;65907;53.640;10.050;2023-03-01T12:14:10;102191.63;;;23.17;22.65
76973;BME280;65907;53.640;10.050;2023-03-01T12:28:03;102177.13;;;24.24;25.64
76973;BME280;65907;53.640;10.050;2023-03-01T12:30:38;102170.03;;;23.88;26.19
76973;BME280;65907;53.640;10.050;2023-03-01T12:38:20;102150.41;;;24.53;25.56
76973;BME280;65907;53.640;10.050;2023-03-01T12:41:11;102154.28;;;24.71;25.16
76973;BME280;65907;53.640;10.050;2023-03-01T12:44:41;102146.53;;;24.81;25.35
76973;BME280;65907;53.640;10.050;2023-03-01T12:49:10;102142.94;;;24.94;25.22
76973;BME280;65907;53.640;10.050;2023-03-01T12:51:38;102139.69;;;25.01;25.14
76973;BME280;65907;53.640;10.050;2023-03-01T12:54:20;102148.66;;;24.99;25.25
76973;BME280;65907;53.640;10.050;2023-03-01T12:56:49;102129.19;;;25.01;25.27
76973;BME280;65907;53.640;10.050;2023-03-01T13:02:09;102131.22;;;25.09;25.24
76973;BME280;65907;53.640;10.050;2023-03-01T13:17:48;102121.50;;;25.10;25.42
76973;BME280;65907;53.640;10.050;2023-03-01T13:20:15;102112.44;;;24.91;25.78
76973;BME280;65907;53.640;10.050;2023-03-01T13:22:44;102115.41;;;24.98;25.39
76973;BME280;65907;53.640;10.050;2023-03-01T13:25:14;102108.72;;;25.05;25.36
76973;BME280;65907;53.640;10.050;2023-03-01T13:27:40;102108.63;;;24.95;25.54
76973;BME280;65907;53.640;10.050;2023-03-01T13:30:12;102102.66;;;24.93;25.76
76973;BME280;65907;53.640;10.050;2023-03-01T13:32:50;102100.00;;;24.93;25.59
76973;BME280;65907;53.640;10.050;2023-03-01T13:37:46;102091.88;;;24.85;25.82
76973;BME280;65907;53.640;10.050;2023-03-01T13:45:20;102082.06;;;24.53;26.24
76973;BME280;65907;53.640;10.050;2023-03-01T13:47:46;102085.44;;;24.77;25.99
76973;BME280;65907;53.640;10.050;2023-03-01T13:50:31;102075.84;;;24.88;25.66
76973;BME280;65907;53.640;10.050;2023-03-01T13:53:02;102077.03;;;24.84;25.99
76973;BME280;65907;53.640;10.050;2023-03-01T13:58:14;102072.97;;;24.91;26.07
76973;BME280;65907;53.640;10.050;2023-03-01T14:00:42;102072.09;;;25.02;25.63
76973;BME280;65907;53.640;10.050;2023-03-01T14:03:17;102070.22;;;25.04;25.67
76973;BME280;65907;53.640;10.050;2023-03-01T14:06:05;102058.72;;;25.05;25.70
76973;BME280;65907;53.640;10.050;2023-03-01T14:08:29;102064.09;;;25.15;25.78
76973;BME280;65907;53.640;10.050;2023-03-01T14:16:12;102065.78;;;25.04;25.79
76973;BME280;65907;53.640;10.050;2023-03-01T14:18:51;102067.91;;;25.11;25.74
76973;BME280;65907;53.640;10.050;2023-03-01T14:21:19;102065.16;;;25.01;25.74
76973;BME280;65907;53.640;10.050;2023-03-01T14:23:45;102061.38;;;24.71;25.93
76973;BME280;65907;53.640;10.050;2023-03-01T14:26:11;102061.50;;;24.58;25.98
76973;BME280;65907;53.640;10.050;2023-03-01T14:28:37;102053.25;;;24.51;26.73
76973;BME280;65907;53.640;10.050;2023-03-01T14:31:21;102050.38;;;24.43;27.09
76973;BME280;65907;53.640;10.050;2023-03-01T14:33:54;102061.50;;;24.69;26.36
76973;BME280;65907;53.640;10.050;2023-03-01T14:36:25;102054.06;;;24.86;26.21
76973;BME280;65907;53.640;10.050;2023-03-01T14:38:51;102037.44;;;24.97;26.35
76973;BME280;65907;53.640;10.050;2023-03-01T14:43:45;102036.25;;;24.67;26.95